Time;durP1;ratioP1;P1;durP2;ratioP2;P2;SDS_P1;SDS_P2;PMS_P1;PMS_P2;Temp;Humidity;BMP_temperature;BMP_pressure;BME280_temperature;BME280_humidity;BME280_pressure;Samples;Min_cycle;Max_cycle;Signal;HPM_P1;HPM_P2
2023/12/26 00:02:05;;;;;;;12.07;7.73;;;;;;;-144.30;64.33;86124.09;5111179;28;20220;-61
2023/12/26 00:04:32;;;;;;;11.40;7.93;;;;;;;-144.30;64.62;86223.50;5111295;28;20722;-61
2023/12/26 00:06:59;;;;;;;8.23;6.83;;;;;;;-144.30;64.93;86201.66;5111261;28;20220;-62
2023/12/26 00:09:27;;;;;;;13.70;7.57;;;;;;;-144.30;64.09;86205.63;5111446;28;20194;-62
2023/12/26 00:11:55;;;;;;;11.27;6.80;;;;;;;-144.30;64.20;86199.66;5111178;28;20285;-64
2023/12/26 00:14:22;;;;;;;11.93;6.93;;;;;;;-144.30;63.80;86199.66;5111263;28;20581;-54
2023/12/26 00:16:48;;;;;;;10.83;7.07;;;;;;;-144.30;63.36;86213.56;5110969;28;20629;-61
2023/12/26 00:19:15;;;;;;;8.50;6.40;;;;;;;-144.30;63.72;86145.97;5111219;28;20256;-54
2023/12/26 00:21:42;;;;;;;7.70;6.43;;;;;;;-144.30;62.57;86205.63;5110916;28;20224;-54
2023/12/26 00:24:09;;;;;;;9.57;6.47;;;;;;;-144.30;62.48;86207.59;5111063;28;20222;-54
2023/12/26 00:26:39;;;;;;;8.10;5.73;;;;;;;-144.30;62.81;86163.88;5110750;28;20198;-62
2023/12/26 00:29:06;;;;;;;10.87;6.70;;;;;;;-144.30;62.75;86197.66;5110888;28;20206;-62
2023/12/26 00:31:33;;;;;;;9.50;6.50;;;;;;;-144.30;62.58;86179.78;5111063;28;20652;-62
2023/12/26 00:34:00;;;;;;;8.40;6.47;;;;;;;-144.30;62.15;86183.75;5110944;28;20202;-54
2023/12/26 00:36:27;;;;;;;8.43;6.43;;;;;;;-144.30;62.49;86199.66;5110894;28;20233;-54
2023/12/26 00:38:54;;;;;;;10.50;6.27;;;;;;;-144.30;62.08;86183.75;5110596;28;20216;-59
2023/12/26 00:41:21;;;;;;;10.43;6.53;;;;;;;-144.30;62.34;86114.16;5110572;28;20325;-54
2023/12/26 00:43:51;;;;;;;9.87;6.50;;;;;;;-144.30;62.52;86124.09;5110437;28;20248;-54
2023/12/26 00:46:18;;;;;;;7.10;6.00;;;;;;;-144.30;62.55;86177.78;5110777;28;20608;-55
2023/12/26 00:48:45;;;;;;;9.37;6.50;;;;;;;-144.30;63.20;86213.56;5110394;28;20722;-62
2023/12/26 00:51:12;;;;;;;8.57;6.37;;;;;;;-144.30;63.34;86171.81;5110420;28;20198;-54
2023/12/26 00:53:39;;;;;;;12.53;5.97;;;;;;;-144.30;62.96;86209.59;5110126;28;20518;-53
2023/12/26 00:56:06;;;;;;;10.50;6.67;;;;;;;-144.30;63.31;86171.81;5109909;28;20772;-54
2023/12/26 00:58:33;;;;;;;10.63;6.17;;;;;;;-144.30;63.49;86199.66;5110349;28;20205;-62
2023/12/26 01:01:01;;;;;;;9.37;6.60;;;;;;;-144.30;63.63;86185.72;5110483;28;20201;-54
2023/12/26 01:03:28;;;;;;;10.40;6.47;;;;;;;-144.30;63.47;86209.59;5110127;28;20240;-53
2023/12/26 01:05:55;;;;;;;11.60;6.70;;;;;;;-144.30;63.66;86213.56;5110062;28;20199;-54
2023/12/26 01:08:22;;;;;;;7.03;5.63;;;;;;;-144.30;63.97;86161.88;5110348;28;20205;-62
2023/12/26 01:10:51;;;;;;;7.40;5.57;;;;;;;-144.30;64.17;86235.44;5110053;28;20285;-62
2023/12/26 01:13:18;;;;;;;8.07;6.37;;;;;;;-144.30;63.92;86197.66;5110517;28;20308;-61
2023/12/26 01:15:45;;;;;;;11.13;6.37;;;;;;;-144.30;63.93;86211.59;5109949;28;20298;-55
2023/12/26 01:18:13;;;;;;;8.10;5.90;;;;;;;-144.30;64.52;86183.75;5110287;28;20590;-55
2023/12/26 01:20:40;;;;;;;9.23;6.43;;;;;;;-144.30;64.18;86243.41;5109968;28;20199;-61
2023/12/26 01:23:07;;;;;;;8.13;6.57;;;;;;;-144.30;64.52;86183.75;5109975;28;20222;-62
2023/12/26 01:25:35;;;;;;;8.83;6.77;;;;;;;-144.30;64.75;86161.88;5109867;28;20230;-62
2023/12/26 01:28:02;;;;;;;9.27;6.53;;;;;;;-144.30;64.67;86217.56;5110061;28;20198;-60
2023/12/26 01:30:29;;;;;;;8.67;6.33;;;;;;;-144.30;65.49;86106.19;5110359;28;20230;-62
2023/12/26 01:32:58;;;;;;;8.23;6.63;;;;;;;-144.30;65.73;86237.44;5109688;28;20186;-60
2023/12/26 01:35:26;;;;;;;14.03;6.93;;;;;;;-144.30;66.05;86233.47;5109832;28;20298;-61
2023/12/26 01:37:54;;;;;;;8.47;6.27;;;;;;;-144.30;66.80;86209.59;5109476;28;20212;-62
2023/12/26 01:40:21;;;;;;;14.03;7.33;;;;;;;-144.30;67.49;86273.22;5109922;28;20285;-63
2023/12/26 01:42:48;;;;;;;14.77;7.23;;;;;;;-144.30;67.07;86255.34;5109475;28;20607;-61
2023/12/26 01:45:15;;;;;;;13.47;7.80;;;;;;;-144.30;67.72;86251.34;5109896;28;20592;-61
2023/12/26 01:47:44;;;;;;;12.00;7.37;;;;;;;-144.30;67.96;86255.34;5109492;28;20625;-62
2023/12/26 01:50:12;;;;;;;8.73;6.23;;;;;;;-144.30;68.62;86267.25;5109759;28;20647;-61
2023/12/26 01:52:41;;;;;;;11.37;6.73;;;;;;;-144.30;68.90;86322.94;5109505;28;20246;-62
2023/12/26 01:55:11;;;;;;;11.57;7.33;;;;;;;-144.30;68.51;86275.22;5109723;28;20289;-54
2023/12/26 01:57:39;;;;;;;12.47;7.07;;;;;;;-144.30;68.92;86245.38;5109483;28;20670;-61
2023/12/26 02:00:08;;;;;;;22.43;8.10;;;;;;;-144.30;69.41;86213.56;5109687;28;20194;-55
2023/12/26 02:02:35;;;;;;;27.00;7.63;;;;;;;-144.30;69.00;86231.47;5109704;28;20226;-62
2023/12/26 02:05:02;;;;;;;21.03;7.90;;;;;;;-144.30;69.40;86283.16;5109765;28;20226;-54
2023/12/26 02:07:29;;;;;;;20.23;8.17;;;;;;;-144.30;69.66;86263.28;5109841;28;20194;-54
2023/12/26 02:10:00;;;;;;;19.47;8.47;;;;;;;-144.30;69.71;86283.16;5112868;28;20191;-62
2023/12/26 02:12:27;;;;;;;20.67;8.13;;;;;;;-144.30;69.95;86293.09;5113683;27;20278;-62
2023/12/26 02:14:54;;;;;;;19.60;7.67;;;;;;;-144.30;70.58;86261.28;5113317;28;20293;-62
2023/12/26 02:17:24;;;;;;;18.70;8.67;;;;;;;-144.30;70.82;86277.19;5113876;28;20285;-62
2023/12/26 02:19:51;;;;;;;17.87;8.80;;;;;;;-144.30;71.28;86275.22;5113226;28;20285;-62
2023/12/26 02:22:18;;;;;;;12.80;8.50;;;;;;;-144.30;72.25;86257.31;5113562;28;20701;-62
2023/12/26 02:24:47;;;;;;;13.77;8.37;;;;;;;-144.30;72.41;86297.09;5113394;28;20585;-61
2023/12/26 02:27:19;;;;;;;12.93;9.07;;;;;;;-144.30;72.47;86366.69;5113277;28;20202;-55
2023/12/26 02:29:50;;;;;;;17.07;9.60;;;;;;;-144.30;72.44;86293.09;5113036;28;20194;-54
2023/12/26 02:32:19;;;;;;;14.23;8.27;;;;;;;-144.30;71.88;86350.78;5113228;28;20319;-62
2023/12/26 02:34:47;;;;;;;15.80;8.43;;;;;;;-144.30;72.51;86314.97;5113243;28;20732;-61
2023/12/26 02:37:14;;;;;;;11.27;8.43;;;;;;;-144.30;72.42;86271.25;5112945;28;20195;-61
2023/12/26 02:39:43;;;;;;;17.40;9.13;;;;;;;-144.30;72.81;86307.03;5112752;28;20274;-54
2023/12/26 02:42:11;;;;;;;12.57;8.70;;;;;;;-144.30;73.74;86354.75;5112810;28;20219;-54
2023/12/26 02:44:38;;;;;;;13.53;8.93;;;;;;;-144.30;73.82;86320.94;5112862;28;20195;-61
2023/12/26 02:47:05;;;;;;;13.77;8.63;;;;;;;-144.30;74.08;86346.81;5113132;28;20274;-61
2023/12/26 02:49:32;;;;;;;13.53;8.87;;;;;;;-144.30;74.24;86316.97;5112954;28;20285;-62
2023/12/26 02:51:59;;;;;;;13.57;8.67;;;;;;;-144.30;74.77;86378.63;5112598;28;20285;-62
2023/12/26 02:54:26;;;;;;;18.67;9.13;;;;;;;-144.30;75.17;86322.94;5113110;28;20197;-61
2023/12/26 02:56:53;;;;;;;16.67;9.27;;;;;;;-144.30;75.20;86386.56;5112585;28;20198;-55
2023/12/26 02:59:22;;;;;;;16.70;8.70;;;;;;;-144.30;75.30;86358.72;5112600;28;20577;-53
2023/12/26 03:01:49;;;;;;;17.03;9.17;;;;;;;-144.30;76.01;86398.50;5112437;28;20201;-54
2023/12/26 03:04:16;;;;;;;16.77;8.97;;;;;;;-144.30;75.85;86346.81;5112495;28;20223;-60
2023/12/26 03:06:43;;;;;;;15.33;9.50;;;;;;;-144.30;76.28;86380.59;5112366;28;20286;-55
2023/12/26 03:09:10;;;;;;;17.97;9.30;;;;;;;-144.30;75.96;86366.69;5112481;28;20285;-54
2023/12/26 03:11:37;;;;;;;16.93;9.60;;;;;;;-144.30;75.24;86344.81;5112536;28;20632;-54
2023/12/26 03:14:04;;;;;;;15.07;9.33;;;;;;;-144.30;76.04;86338.84;5112325;28;20226;-54
2023/12/26 03:16:32;;;;;;;12.53;8.60;;;;;;;-144.30;75.79;86605.31;5112251;28;20359;-61
2023/12/26 03:18:59;;;;;;;15.10;8.70;;;;;;;-144.30;76.08;86356.75;5111631;28;20646;-61
2023/12/26 03:21:26;;;;;;;14.43;9.40;;;;;;;-144.30;75.76;86382.59;5112296;28;20230;-62
2023/12/26 03:23:53;;;;;;;15.07;9.10;;;;;;;-144.30;76.51;86388.56;5112043;28;20222;-62
2023/12/26 03:26:20;;;;;;;13.23;8.97;;;;;;;-144.30;76.45;86382.59;5112103;28;20199;-54
2023/12/26 03:28:47;;;;;;;15.07;8.37;;;;;;;-144.30;76.27;86356.75;5111452;28;20205;-54
2023/12/26 03:31:14;;;;;;;15.47;9.10;;;;;;;-144.30;76.35;86374.63;5112083;28;20289;-54
2023/12/26 03:33:42;;;;;;;15.07;8.87;;;;;;;-144.30;76.61;86378.63;5111983;28;20313;-61
2023/12/26 03:36:09;;;;;;;14.97;8.93;;;;;;;-144.30;76.07;86358.72;5112064;28;20201;-62
2023/12/26 03:38:37;;;;;;;18.87;8.67;;;;;;;-144.30;76.48;86394.53;5111953;28;20623;-62
2023/12/26 03:41:04;;;;;;;12.60;8.13;;;;;;;-144.30;76.90;86364.69;5111596;28;20209;-61
2023/12/26 03:43:31;;;;;;;13.57;8.30;;;;;;;-144.30;77.40;86394.53;5112244;28;20573;-61
2023/12/26 03:45:58;;;;;;;13.50;8.60;;;;;;;-144.30;76.87;86350.78;5111564;28;20208;-55
2023/12/26 03:48:25;;;;;;;15.90;8.90;;;;;;;-144.30;77.07;86322.94;5111754;28;20202;-54
2023/12/26 03:50:53;;;;;;;16.70;8.50;;;;;;;-144.30;77.17;86366.69;5111240;28;20201;-55
2023/12/26 03:53:20;;;;;;;13.63;8.10;;;;;;;-144.30;76.64;86418.38;5111590;28;20201;-61
2023/12/26 03:55:47;;;;;;;12.03;7.93;;;;;;;-144.30;76.85;86364.69;5111299;28;20285;-62
2023/12/26 03:58:14;;;;;;;12.73;8.13;;;;;;;-144.30;76.49;86364.69;5112020;28;20198;-62
2023/12/26 04:00:41;;;;;;;12.43;8.13;;;;;;;-144.30;76.76;86346.81;5111783;28;20213;-62
2023/12/26 04:03:08;;;;;;;15.50;8.77;;;;;;;-144.30;76.80;86382.59;5111847;28;20240;-62
2023/12/26 04:05:35;;;;;;;13.60;8.47;;;;;;;-144.30;77.13;86394.53;5111561;28;20203;-53
2023/12/26 04:08:04;;;;;;;12.57;8.77;;;;;;;-144.30;78.00;86392.53;5111286;28;20200;-55
2023/12/26 04:10:31;;;;;;;14.27;9.33;;;;;;;-144.30;77.99;86410.44;5111231;28;20302;-54
2023/12/26 04:12:58;;;;;;;16.03;9.90;;;;;;;-144.30;77.95;86390.53;5111572;28;20706;-53
2023/12/26 04:15:25;;;;;;;18.17;10.33;;;;;;;-144.30;78.13;86408.44;5111370;28;20205;-54
2023/12/26 04:17:52;;;;;;;20.07;11.97;;;;;;;-144.30;78.30;86370.66;5110965;28;20194;-61
2023/12/26 04:20:19;;;;;;;22.23;11.47;;;;;;;-144.30;78.26;86416.41;5111106;28;20271;-62
2023/12/26 04:22:46;;;;;;;22.17;11.87;;;;;;;-144.30;79.51;86406.44;5111108;28;20669;-62
2023/12/26 04:25:15;;;;;;;23.17;12.00;;;;;;;-144.30;79.90;86396.50;5111247;28;20201;-62
2023/12/26 04:27:42;;;;;;;23.93;12.70;;;;;;;-144.30;81.16;86462.13;5111029;28;20245;-61
2023/12/26 04:30:09;;;;;;;19.30;12.33;;;;;;;-144.30;80.36;86382.59;5110596;28;20190;-61
2023/12/26 04:32:36;;;;;;;19.40;13.60;;;;;;;-144.30;80.72;86390.53;5110119;28;20281;-61
2023/12/26 04:35:04;;;;;;;25.83;12.63;;;;;;;-144.30;80.69;86374.63;5110980;28;20599;-61
2023/12/26 04:37:31;;;;;;;20.43;11.80;;;;;;;-144.30;81.60;86414.41;5111183;28;20705;-61
2023/12/26 04:39:58;;;;;;;23.50;11.73;;;;;;;-144.30;81.47;86398.50;5110888;28;20195;-62
2023/12/26 04:42:26;;;;;;;19.30;11.80;;;;;;;-144.30;81.44;86402.47;5110891;28;20651;-62
2023/12/26 04:44:53;;;;;;;23.33;11.80;;;;;;;-144.30;80.92;86406.44;5110724;28;20220;-62
2023/12/26 04:47:20;;;;;;;21.37;12.23;;;;;;;-144.30;80.72;86432.31;5110834;28;20226;-62
2023/12/26 04:49:47;;;;;;;19.43;11.27;;;;;;;-144.30;80.84;86406.44;5110574;28;20194;-61
2023/12/26 04:52:14;;;;;;;19.03;12.10;;;;;;;-144.30;80.75;86418.38;5110613;28;20205;-62
2023/12/26 04:54:41;;;;;;;18.30;11.30;;;;;;;-144.30;81.02;86440.25;5110568;28;20197;-61
2023/12/26 04:57:10;;;;;;;25.73;12.10;;;;;;;-144.30;80.53;86390.53;5110582;28;20205;-62
2023/12/26 04:59:39;;;;;;;21.57;11.20;;;;;;;-144.30;81.51;86394.53;5110408;28;20625;-62
2023/12/26 05:02:06;;;;;;;18.53;11.67;;;;;;;-144.30;81.59;86434.28;5110254;28;20289;-61
2023/12/26 05:04:33;;;;;;;16.63;10.83;;;;;;;-144.30;81.21;86450.19;5110302;28;20225;-62
2023/12/26 05:07:00;;;;;;;19.80;11.10;;;;;;;-144.30;80.86;86432.31;5110236;28;20684;-53
2023/12/26 05:09:27;;;;;;;18.20;12.17;;;;;;;-144.30;81.26;86436.28;5110296;28;20834;-54
2023/12/26 05:11:54;;;;;;;23.03;12.03;;;;;;;-144.30;81.24;86418.38;5109910;28;20205;-54
2023/12/26 05:14:21;;;;;;;23.53;12.30;;;;;;;-144.30;80.84;86438.28;5110149;28;20277;-54
2023/12/26 05:16:50;;;;;;;25.93;12.20;;;;;;;-144.30;81.01;86426.34;5109916;27;20194;-53
2023/12/26 05:19:17;;;;;;;20.67;13.80;;;;;;;-144.30;81.99;86438.28;5110102;28;20205;-54
2023/12/26 05:21:44;;;;;;;24.23;13.53;;;;;;;-144.30;83.25;86414.41;5109831;28;20191;-54
2023/12/26 05:24:11;;;;;;;23.63;13.73;;;;;;;-144.30;83.92;86458.16;5109690;28;20789;-54
2023/12/26 05:26:39;;;;;;;23.07;13.43;;;;;;;-144.30;83.63;86458.16;5109441;28;20689;-53
2023/12/26 05:29:07;;;;;;;30.30;15.07;;;;;;;-144.30;83.11;86416.41;5109789;28;20224;-53
2023/12/26 05:31:33;;;;;;;33.67;15.83;;;;;;;-144.30;82.81;86432.31;5109774;28;20209;-54
2023/12/26 05:34:04;;;;;;;34.17;17.33;;;;;;;-144.30;82.32;86450.19;5105153;28;20194;-61
2023/12/26 05:36:31;;;;;;;41.47;18.40;;;;;;;-144.30;81.97;86464.13;5109467;28;20291;-61
2023/12/26 05:38:58;;;;;;;40.93;21.87;;;;;;;-144.30;82.81;86430.31;5109725;28;20206;-60
2023/12/26 05:41:26;;;;;;;38.47;19.07;;;;;;;-144.30;83.72;86468.09;5109534;28;20222;-61
2023/12/26 05:43:53;;;;;;;35.20;16.67;;;;;;;-144.30;84.07;86458.16;5114114;27;20214;-60
2023/12/26 05:46:20;;;;;;;34.10;16.03;;;;;;;-144.30;84.66;86470.09;5109639;28;20281;-59
2023/12/26 05:48:47;;;;;;;28.80;14.97;;;;;;;-144.30;84.43;86432.31;5108941;28;20332;-55
2023/12/26 05:51:15;;;;;;;24.10;14.37;;;;;;;-144.30;84.47;86470.09;5109650;28;20287;-55
2023/12/26 05:53:42;;;;;;;21.50;12.73;;;;;;;-144.30;83.66;86378.63;5109122;28;20693;-55
2023/12/26 05:56:09;;;;;;;30.60;15.87;;;;;;;-144.30;83.73;86462.13;5109500;28;20297;-62
2023/12/26 05:58:36;;;;;;;30.63;15.80;;;;;;;-144.30;83.61;86442.25;5109209;28;20224;-62
2023/12/26 06:01:03;;;;;;;26.90;13.83;;;;;;;-144.30;82.61;86418.38;5109444;28;20209;-63
2023/12/26 06:03:30;;;;;;;12.40;8.73;;;;;;;-144.30;81.17;86422.38;5109073;28;20275;-61
2023/12/26 06:05:57;;;;;;;14.30;9.40;;;;;;;-144.30;80.58;86446.22;5109284;28;20645;-61
2023/12/26 06:08:26;;;;;;;12.73;9.03;;;;;;;-144.30;81.44;86480.03;5109452;28;20286;-62
2023/12/26 06:10:53;;;;;;;23.40;12.23;;;;;;;-144.30;82.07;86472.06;5109314;28;20206;-55
2023/12/26 06:13:21;;;;;;;21.07;11.23;;;;;;;-144.30;82.17;86466.09;5109459;28;20202;-54
2023/12/26 06:15:48;;;;;;;18.87;10.27;;;;;;;-144.30;82.56;86460.16;5109179;28;20198;-55
2023/12/26 06:18:15;;;;;;;24.30;11.40;;;;;;;-144.30;82.07;86468.09;5108622;28;20202;-54
2023/12/26 06:20:42;;;;;;;28.83;13.73;;;;;;;-144.30;82.19;86487.97;5109346;28;20197;-53
2023/12/26 06:23:09;;;;;;;37.15;15.75;;;;;;;-144.30;81.96;86482.03;5109422;28;20577;-53
2023/12/26 06:25:37;;;;;;;25.53;12.93;;;;;;;-144.30;82.17;86486.00;5109371;28;20996;-54
2023/12/26 06:28:04;;;;;;;19.23;11.50;;;;;;;-144.30;82.03;86472.06;5108773;28;20198;-54
2023/12/26 06:30:31;;;;;;;19.33;9.47;;;;;;;-144.30;81.99;86493.94;5108935;28;20301;-54
2023/12/26 06:32:58;;;;;;;16.90;8.47;;;;;;;-144.30;82.05;86513.84;5108189;28;20293;-54
2023/12/26 06:35:25;;;;;;;11.73;8.40;;;;;;;-144.30;82.30;86505.88;5108324;28;20198;-57
2023/12/26 06:37:52;;;;;;;11.40;8.37;;;;;;;-144.30;82.34;86472.06;5108798;28;20190;-62
2023/12/26 06:40:19;;;;;;;19.63;10.33;;;;;;;-144.30;81.48;86456.16;5109193;28;20281;-61
2023/12/26 06:42:47;;;;;;;16.37;10.50;;;;;;;-144.30;80.55;86462.13;5108924;28;20291;-62
2023/12/26 06:45:14;;;;;;;28.23;16.20;;;;;;;-144.30;80.05;86487.97;5109191;28;20313;-61
2023/12/26 06:47:42;;;;;;;35.67;16.63;;;;;;;-144.30;81.37;86486.00;5109192;28;20431;-62
2023/12/26 06:50:09;;;;;;;34.57;18.43;;;;;;;-144.30;82.42;86503.91;5109225;28;20238;-61
2023/12/26 06:52:37;;;;;;;38.33;21.13;;;;;;;-144.30;81.38;86480.03;5109299;28;20286;-62
2023/12/26 06:55:04;;;;;;;39.03;22.33;;;;;;;-144.30;80.60;86456.16;5110929;28;20201;-63
2023/12/26 06:57:31;;;;;;;38.37;21.97;;;;;;;-144.30;80.53;86414.41;5113125;28;20729;-62
2023/12/26 06:59:59;;;;;;;38.63;20.90;;;;;;;-144.30;80.68;86458.16;5112610;28;20285;-54
2023/12/26 07:02:26;;;;;;;43.00;22.60;;;;;;;-144.30;79.94;86438.28;5112722;28;20285;-54
2023/12/26 07:04:53;;;;;;;40.97;23.13;;;;;;;-144.30;79.57;86446.22;5112791;28;20305;-54
2023/12/26 07:07:20;;;;;;;45.07;22.53;;;;;;;-144.30;78.67;86420.38;5112602;28;20195;-54
2023/12/26 07:09:47;;;;;;;41.10;22.60;;;;;;;-144.30;78.54;86412.41;5112499;28;20198;-62
2023/12/26 07:12:14;;;;;;;46.23;21.20;;;;;;;-144.30;78.11;86420.38;5112649;28;20194;-62
2023/12/26 07:14:41;;;;;;;35.43;20.43;;;;;;;-144.30;80.20;86474.06;5112451;28;20293;-62
2023/12/26 07:17:09;;;;;;;31.57;18.30;;;;;;;-144.30;77.87;86354.75;5112490;28;20655;-55
2023/12/26 07:19:36;;;;;;;33.33;18.17;;;;;;;-144.30;77.55;86454.19;5112559;28;20230;-62
2023/12/26 07:22:03;;;;;;;32.27;19.53;;;;;;;-144.30;77.48;86390.53;5112119;28;20289;-62
2023/12/26 07:24:30;;;;;;;33.97;19.93;;;;;;;-144.30;77.12;86396.50;5112383;28;20222;-61
2023/12/26 07:26:56;;;;;;;46.77;20.43;;;;;;;-144.30;77.26;86402.47;5112345;28;20197;-62
2023/12/26 07:29:23;;;;;;;34.33;21.00;;;;;;;-144.30;77.92;86374.63;5112315;28;20641;-54
2023/12/26 07:31:53;;;;;;;33.03;18.40;;;;;;;-144.30;76.99;86358.72;5112021;27;20641;-55
2023/12/26 07:34:21;;;;;;;36.13;20.00;;;;;;;-144.30;76.04;86352.75;5112045;28;20221;-53
2023/12/26 07:36:48;;;;;;;35.80;18.77;;;;;;;-144.30;75.40;86394.53;5111816;28;20282;-54
2023/12/26 07:39:15;;;;;;;35.20;18.63;;;;;;;-144.30;75.51;86400.50;5111729;28;20419;-53
2023/12/26 07:41:42;;;;;;;33.27;19.97;;;;;;;-144.30;76.13;86374.63;5111765;28;20256;-54
2023/12/26 07:44:09;;;;;;;38.83;19.87;;;;;;;-144.30;76.51;86392.53;5107263;28;20781;-54
2023/12/26 07:46:36;;;;;;;38.73;18.93;;;;;;;-144.30;76.07;86398.50;5111905;28;20204;-54
2023/12/26 07:49:03;;;;;;;34.37;19.47;;;;;;;-144.30;75.30;86360.72;5111807;28;20197;-55
2023/12/26 07:51:32;;;;;;;30.93;19.37;;;;;;;-144.30;74.84;86358.72;5112007;28;20290;-54
2023/12/26 07:53:59;;;;;;;33.97;19.20;;;;;;;-144.30;76.17;86372.66;5116434;27;20309;-54
2023/12/26 07:56:26;;;;;;;35.43;19.03;;;;;;;-144.30;74.81;86328.91;5111759;27;20199;-63
2023/12/26 07:58:54;;;;;;;27.80;17.07;;;;;;;-144.30;72.98;86334.88;5111243;28;20218;-61
2023/12/26 08:01:21;;;;;;;31.73;18.30;;;;;;;-144.30;73.21;86348.78;5110588;28;20206;-61
2023/12/26 08:03:48;;;;;;;31.43;17.83;;;;;;;-144.30;73.65;86314.97;5109328;28;20584;-54
2023/12/26 08:06:15;;;;;;;27.27;16.83;;;;;;;-144.30;72.68;86332.88;5108877;28;20195;-58
2023/12/26 08:08:43;;;;;;;27.80;18.43;;;;;;;-144.30;72.64;86291.13;5110223;28;20674;-55
2023/12/26 08:11:11;;;;;;;34.87;20.07;;;;;;;-144.30;72.00;86257.31;5111474;28;20198;-57
2023/12/26 08:13:38;;;;;;;35.23;19.13;;;;;;;-144.30;72.60;86311.00;5110974;28;20207;-55
2023/12/26 08:16:05;;;;;;;27.97;17.60;;;;;;;-144.30;71.67;86285.16;5111036;28;20251;-53
2023/12/26 08:18:32;;;;;;;27.37;17.77;;;;;;;-144.30;71.21;86311.00;5111366;28;20276;-54
2023/12/26 08:21:00;;;;;;;34.93;18.57;;;;;;;-144.30;71.12;86285.16;5110938;28;20206;-54
2023/12/26 08:23:27;;;;;;;33.40;19.47;;;;;;;-144.30;69.87;86247.38;5111376;28;20660;-54
2023/12/26 08:25:56;;;;;;;37.37;20.20;;;;;;;-144.30;69.38;86249.38;5110939;28;20228;-54
2023/12/26 08:28:23;;;;;;;33.47;19.03;;;;;;;-144.30;68.64;86245.38;5109717;28;20195;-54
2023/12/26 08:30:50;;;;;;;35.80;19.93;;;;;;;-144.30;68.32;86231.47;5110267;28;20210;-60
2023/12/26 08:33:17;;;;;;;40.47;19.40;;;;;;;-144.30;67.43;86225.50;5098250;28;20250;-58
2023/12/26 08:35:44;;;;;;;35.00;20.00;;;;;;;-144.30;67.12;86205.63;5091012;28;20278;-58
2023/12/26 08:38:10;;;;;;;31.60;18.80;;;;;;;-144.30;66.22;86227.50;5090790;28;20286;-57
2023/12/26 08:40:37;;;;;;;33.50;18.43;;;;;;;-144.30;67.12;86195.69;5090808;28;20235;-57
2023/12/26 08:43:06;;;;;;;31.03;19.00;;;;;;;-144.30;67.01;86191.69;5090451;28;20317;-58
2023/12/26 08:45:34;;;;;;;37.53;20.40;;;;;;;-144.30;66.41;86213.56;5090811;28;20225;-58
2023/12/26 08:48:02;;;;;;;32.57;20.40;;;;;;;-144.30;65.90;86205.63;5090526;28;20202;-58
2023/12/26 08:50:29;;;;;;;38.27;19.63;;;;;;;-144.30;65.15;86183.75;5090739;28;20206;-57
2023/12/26 08:52:56;;;;;;;41.97;21.77;;;;;;;-144.30;64.71;86161.88;5090283;28;20202;-50
2023/12/26 08:55:23;;;;;;;43.00;22.23;;;;;;;-144.30;64.27;86155.91;5096863;28;20321;-50
2023/12/26 08:57:49;;;;;;;36.40;20.23;;;;;;;-144.30;64.63;86183.75;5109467;28;20233;-49
2023/12/26 09:00:19;;;;;;;34.87;20.20;;;;;;;-144.30;63.85;86155.91;5110597;28;20237;-50
2023/12/26 09:02:46;;;;;;;36.30;19.70;;;;;;;-144.30;63.23;86140.00;5100806;28;20202;-50
2023/12/26 09:05:13;;;;;;;36.23;19.70;;;;;;;-144.30;64.52;86171.81;5110773;28;20225;-59
2023/12/26 09:07:40;;;;;;;31.27;18.43;;;;;;;-144.30;63.76;86145.97;5110575;28;20248;-49
2023/12/26 09:10:08;;;;;;;29.47;16.83;;;;;;;-144.30;63.87;86167.84;5109626;28;20198;-50
2023/12/26 09:12:35;;;;;;;32.80;17.40;;;;;;;-144.30;62.55;86145.97;5105139;28;20286;-50
2023/12/26 09:15:02;;;;;;;28.03;16.40;;;;;;;-144.30;63.42;86032.63;5096751;28;20218;-58
2023/12/26 09:17:31;;;;;;;25.73;15.43;;;;;;;-144.30;62.32;86106.19;5108957;28;20696;-51
2023/12/26 09:19:58;;;;;;;23.43;14.33;;;;;;;-144.30;62.39;86104.22;5109090;28;20203;-59
2023/12/26 09:22:25;;;;;;;24.90;15.77;;;;;;;-144.30;62.05;86088.31;5108282;28;20217;-51
2023/12/26 09:24:52;;;;;;;25.03;14.50;;;;;;;-144.30;62.66;86102.22;5109599;28;20544;-49
2023/12/26 09:27:19;;;;;;;24.93;13.60;;;;;;;-144.30;62.35;86124.09;5110272;28;20230;-58
2023/12/26 09:29:46;;;;;;;34.13;13.67;;;;;;;-144.30;61.30;86106.19;5109997;28;20195;-58
2023/12/26 09:32:13;;;;;;;23.40;13.23;;;;;;;-144.30;60.77;86086.31;5110128;28;20560;-53
2023/12/26 09:34:41;;;;;;;19.57;12.13;;;;;;;-144.30;60.99;86112.16;5110121;28;20662;-54
2023/12/26 09:37:08;;;;;;;21.23;12.03;;;;;;;-144.30;60.71;86138.00;5109817;28;20238;-53
2023/12/26 09:39:35;;;;;;;19.57;10.73;;;;;;;-144.30;60.59;86092.28;5109900;28;20644;-53
2023/12/26 09:42:04;;;;;;;16.50;11.80;;;;;;;-144.30;59.78;86056.50;5109647;28;20226;-54
2023/12/26 09:44:32;;;;;;;17.50;10.73;;;;;;;-144.30;59.63;86050.53;5109980;28;20222;-54
2023/12/26 09:47:00;;;;;;;17.87;10.77;;;;;;;-144.30;60.19;86064.44;5109841;28;20198;-54
2023/12/26 09:49:27;;;;;;;20.33;11.60;;;;;;;-144.30;60.76;86024.69;5110071;28;20599;-53
2023/12/26 09:51:58;;;;;;;17.97;10.53;;;;;;;-144.30;59.78;86028.66;5109630;28;20241;-54
2023/12/26 09:54:30;;;;;;;19.33;11.33;;;;;;;-144.30;59.30;86008.78;5109860;28;20278;-54
2023/12/26 09:56:57;;;;;;;17.53;10.60;;;;;;;-144.30;58.28;85998.84;5109291;28;20199;-54
2023/12/26 09:59:26;;;;;;;23.77;12.20;;;;;;;-144.30;58.90;85982.94;5109478;28;20197;-54
2023/12/26 10:01:53;;;;;;;21.77;12.13;;;;;;;-144.30;58.99;85990.88;5109425;28;20764;-54
2023/12/26 10:04:21;;;;;;;26.30;13.17;;;;;;;-144.30;58.02;85994.84;5109488;28;20198;-62
2023/12/26 10:06:48;;;;;;;19.23;12.63;;;;;;;-144.30;57.50;85953.09;5109493;28;20198;-60
2023/12/26 10:09:18;;;;;;;22.80;12.50;;;;;;;-144.30;57.20;85953.09;5110077;28;20310;-60
2023/12/26 10:11:46;;;;;;;25.63;13.17;;;;;;;-144.30;57.88;85980.94;5109745;28;20286;-59
2023/12/26 10:14:13;;;;;;;19.47;11.23;;;;;;;-144.30;56.95;85992.88;5109548;28;20195;-54
2023/12/26 10:16:40;;;;;;;28.10;12.50;;;;;;;-144.30;57.11;86032.63;5109794;28;20234;-61
2023/12/26 10:19:10;;;;;;;16.53;10.87;;;;;;;-144.30;56.56;85984.91;5109677;28;20314;-60
2023/12/26 10:21:38;;;;;;;22.57;12.10;;;;;;;-144.30;56.66;85951.13;5110221;28;20663;-61
2023/12/26 10:24:05;;;;;;;19.30;12.23;;;;;;;-144.30;55.71;85996.84;5109992;28;20747;-61
2023/12/26 10:26:34;;;;;;;27.37;13.70;;;;;;;-144.30;55.83;85963.03;5109826;28;20226;-60
2023/12/26 10:29:02;;;;;;;34.27;18.80;;;;;;;-144.30;55.46;85937.19;5109509;28;20291;-62
2023/12/26 10:31:29;;;;;;;36.63;20.07;;;;;;;-144.30;56.12;85980.94;5113520;28;20202;-61
2023/12/26 10:33:56;;;;;;;45.73;23.33;;;;;;;-144.30;55.03;85965.03;5113462;28;20525;-61
2023/12/26 10:36:23;;;;;;;43.27;22.13;;;;;;;-144.30;54.81;85951.13;5113350;28;20239;-60
2023/12/26 10:38:50;;;;;;;50.00;23.60;;;;;;;-144.30;54.38;85913.34;5113760;28;20676;-61
2023/12/26 10:41:24;;;;;;;45.87;24.50;;;;;;;-144.30;54.04;85965.03;5113445;28;20313;-63
2023/12/26 10:43:58;;;;;;;39.43;22.97;;;;;;;-144.30;54.21;85939.19;5112726;28;20264;-62
2023/12/26 10:46:26;;;;;;;50.77;25.40;;;;;;;-144.30;53.81;85885.50;5092532;28;20628;-61
2023/12/26 10:48:56;;;;;;;42.53;23.83;;;;;;;-144.30;53.70;85911.34;5091538;28;20200;-61
2023/12/26 10:51:26;;;;;;;50.63;24.67;;;;;;;-144.30;53.84;85905.38;5092484;28;20199;-61
2023/12/26 10:53:57;;;;;;;46.23;23.93;;;;;;;-144.30;54.13;85859.66;5092636;28;20195;-61
2023/12/26 10:56:24;;;;;;;44.77;24.67;;;;;;;-144.30;53.86;85891.47;5092591;28;20199;-61
2023/12/26 10:58:54;;;;;;;45.30;23.50;;;;;;;-144.30;53.73;85873.56;5092413;28;20201;-53
2023/12/26 13:52:50;;;;;;;20.53;11.23;;;;;;;-144.30;49.12;85750.31;5094094;28;20665;-62
2023/12/26 13:55:16;;;;;;;32.23;11.47;;;;;;;-144.30;49.17;85790.06;5109843;28;20196;-60
2023/12/26 13:57:43;;;;;;;19.07;11.43;;;;;;;-144.30;49.00;85790.06;5109319;28;20194;-54